METAR Data
IDs: Format: Raw Decoded Include TAF

Data at: 1351 UTC 26 Feb 2021

KMIC 261253Z AUTO 17008KT 10SM FEW070 M01/M05 A2989 RMK AO2 SLP131 T10111050 $